Terminal Aerodrome Forecast
Issued by NWS Sioux Falls, SD

Home | Current Version | Previous Version | Graphics & Text | Print | Product List | Glossary On
Versions: 1 2 3 4 5 6 7 8 9 10 11 12 13 14 15 16 17 18 19 20 21 22 23
000
FTUS43 KFSD 221744
TAFSUX
TAF
KSUX 221744Z 2218/2318 16017G25KT P6SM SCT180
     FM222200 19012KT 6SM -RA SCT015 OVC040
      TEMPO 2222/2301 4SM SHRA BKN015
     FM230300 23005KT P6SM BKN015
     FM230500 29007KT P6SM BKN200
     FM230900 VRB03KT P6SM SKC=

USA.gov is the U.S. government's official web portal to all federal, state and local government web resources and services.